Time;durP1;ratioP1;P1;durP2;ratioP2;P2;SDS_P1;SDS_P2;PMS_P1;PMS_P2;Temp;Humidity;BMP_temperature;BMP_pressure;BME280_temperature;BME280_humidity;BME280_pressure;Samples;Min_cycle;Max_cycle;Signal;HPM_P1;HPM_P2
2021/11/18 00:01:52;;;;;;;29.23;18.17;;;;;;;2.25;78.11;93994.53;5111730;28;20092;-44
2021/11/18 00:04:19;;;;;;;24.27;16.15;;;;;;;2.47;78.78;93998.69;5111168;28;20024;-44
2021/11/18 00:06:48;;;;;;;24.92;15.23;;;;;;;2.41;77.70;93998.63;5111092;28;20041;-43
2021/11/18 00:09:15;;;;;;;25.92;16.83;;;;;;;2.38;77.36;93966.91;5111282;28;20416;-43
2021/11/18 00:11:40;;;;;;;29.75;18.08;;;;;;;2.46;77.35;93987.03;5111117;28;20031;-46
2021/11/18 00:14:06;;;;;;;32.25;19.58;;;;;;;2.58;77.68;93994.06;5093384;28;20103;-43
2021/11/18 00:16:32;;;;;;;31.52;19.23;;;;;;;2.65;77.36;93992.88;5111276;28;20456;-45
2021/11/18 00:18:57;;;;;;;30.50;17.40;;;;;;;2.71;76.63;93996.38;5111296;28;20115;-45
2021/11/18 00:21:26;;;;;;;32.38;17.73;;;;;;;2.72;76.61;93995.91;5111302;28;20035;-44
2021/11/18 00:23:54;;;;;;;30.35;17.05;;;;;;;2.64;77.25;93999.56;5111221;28;20112;-45
2021/11/18 00:26:21;;;;;;;37.58;19.63;;;;;;;2.55;77.12;93988.84;5111054;28;20069;-45
2021/11/18 00:28:47;;;;;;;33.92;19.77;;;;;;;2.44;76.57;93989.50;5110901;28;20016;-47
2021/11/18 00:31:15;;;;;;;23.60;14.20;;;;;;;2.21;77.53;93993.25;5111084;28;20020;-47
2021/11/18 00:33:41;;;;;;;24.13;14.90;;;;;;;2.31;77.39;93986.41;5110956;28;20032;-46
2021/11/18 00:36:07;;;;;;;25.23;15.80;;;;;;;2.39;76.68;93992.91;5110919;28;20024;-46
2021/11/18 00:38:34;;;;;;;25.55;15.02;;;;;;;2.13;77.13;93992.19;5111025;28;20091;-45
2021/11/18 00:41:00;;;;;;;22.05;14.38;;;;;;;2.16;77.09;93989.28;5102867;28;20501;-48
2021/11/18 00:43:26;;;;;;;22.13;15.02;;;;;;;2.27;76.82;93980.44;5108261;28;20022;-44
2021/11/18 00:45:52;;;;;;;25.60;15.80;;;;;;;2.13;76.55;93978.56;5110807;28;20074;-45
2021/11/18 00:48:19;;;;;;;22.70;14.27;;;;;;;1.79;77.83;93976.75;5110791;28;20072;-44
2021/11/18 00:51:00;;;;;;;42.53;21.92;;;;;;;1.73;78.82;93984.13;5110952;28;20545;-45
2021/11/18 00:53:26;;;;;;;38.40;22.17;;;;;;;1.85;79.20;93983.75;5110657;28;20485;-47
2021/11/18 00:55:51;;;;;;;34.60;20.48;;;;;;;1.86;79.05;93973.63;5110993;28;20080;-46
2021/11/18 00:58:18;;;;;;;33.00;20.25;;;;;;;1.93;78.19;93979.38;5110503;28;20509;-44
2021/11/18 01:00:46;;;;;;;31.42;20.15;;;;;;;2.01;77.75;93983.19;5110508;28;20533;-44
2021/11/18 01:03:13;;;;;;;32.42;19.17;;;;;;;1.98;76.87;93981.41;5110581;28;20547;-44
2021/11/18 01:05:44;;;;;;;38.38;20.85;;;;;;;2.00;76.92;93978.94;5110367;28;20039;-43
2021/11/18 01:08:10;;;;;;;24.13;15.15;;;;;;;1.74;77.07;93988.31;5110840;28;20038;-42
2021/11/18 01:10:40;;;;;;;30.08;16.25;;;;;;;1.37;78.44;93967.13;5110370;28;20023;-42
2021/11/18 01:13:07;;;;;;;27.50;17.25;;;;;;;1.51;78.31;93985.38;5110410;28;20031;-42
2021/11/18 01:15:34;;;;;;;29.05;16.92;;;;;;;1.60;78.30;93983.72;5110237;28;20075;-43
2021/11/18 01:18:00;;;;;;;24.63;16.20;;;;;;;1.49;78.33;93987.06;5113186;28;20481;-43
2021/11/18 01:20:26;;;;;;;24.95;14.57;;;;;;;1.58;78.25;93981.50;5114710;28;20028;-43
2021/11/18 01:22:53;;;;;;;21.25;13.23;;;;;;;1.57;77.78;93987.38;5114845;28;20030;-46
2021/11/18 01:25:19;;;;;;;19.15;12.63;;;;;;;1.59;77.76;93991.13;5114937;28;20073;-45
2021/11/18 01:27:45;;;;;;;22.10;12.52;;;;;;;1.48;76.87;93970.00;5114907;28;20675;-44
2021/11/18 01:30:16;;;;;;;18.40;11.68;;;;;;;1.62;77.20;93997.59;5114266;28;20073;-44
2021/11/18 01:32:41;;;;;;;20.40;11.98;;;;;;;1.43;76.66;93997.88;5114383;28;20027;-44
2021/11/18 01:35:07;;;;;;;22.27;12.05;;;;;;;1.41;77.70;93994.88;5114749;28;20027;-43
2021/11/18 01:37:33;;;;;;;17.45;11.25;;;;;;;1.45;77.24;93998.13;5114469;28;20054;-43
2021/11/18 01:39:58;;;;;;;19.67;11.70;;;;;;;1.49;77.04;93997.94;5114671;28;20524;-43
2021/11/18 01:42:24;;;;;;;20.83;10.80;;;;;;;1.45;77.03;93998.13;5113939;28;20389;-44
2021/11/18 01:44:51;;;;;;;15.55;10.20;;;;;;;1.38;77.03;93993.13;5114535;28;20080;-44
2021/11/18 01:47:17;;;;;;;18.80;10.40;;;;;;;1.35;77.52;93996.78;5114037;28;20074;-43
2021/11/18 01:49:45;;;;;;;16.77;10.52;;;;;;;1.13;78.29;93991.06;5114186;28;20419;-44
2021/11/18 01:52:14;;;;;;;17.10;10.68;;;;;;;1.13;78.09;93999.22;5113742;28;20028;-44
2021/11/18 01:54:41;;;;;;;;;;;;;;;1.21;77.86;93988.69;5094357;28;20062;-44
2021/11/18 01:57:09;;;;;;;24.50;12.05;;;;;;;0.94;78.23;93970.78;5113889;28;19915;-44
2021/11/18 01:59:37;;;;;;;19.00;10.23;;;;;;;1.12;77.79;93977.94;5114139;28;20023;-44
2021/11/18 02:02:06;;;;;;;27.43;15.00;;;;;;;1.00;78.88;93968.88;5113487;28;20492;-44
2021/11/18 02:04:32;;;;;;;23.15;13.38;;;;;;;1.11;79.13;93981.88;5113478;28;20020;-46
2021/11/18 02:07:07;;;;;;;26.73;12.98;;;;;;;1.14;79.44;93978.22;5113617;28;20039;-46
2021/11/18 02:09:41;;;;;;;35.88;19.15;;;;;;;1.22;78.87;93976.59;5111727;28;20016;-45
2021/11/18 02:12:13;;;;;;;22.25;14.25;;;;;;;1.14;78.88;93975.50;5110950;28;20015;-44
2021/11/18 02:14:39;;;;;;;27.70;15.77;;;;;;;1.11;79.23;93981.88;5113944;28;20027;-42
2021/11/18 02:17:08;;;;;;;31.27;17.45;;;;;;;1.07;79.10;93965.00;5113854;28;20100;-44
2021/11/18 02:19:37;;;;;;;29.95;18.05;;;;;;;1.24;79.44;93977.59;5113919;28;20034;-45
2021/11/18 02:22:02;;;;;;;33.72;19.08;;;;;;;1.15;79.05;93975.00;5113666;28;20419;-43
2021/11/18 02:24:33;;;;;;;30.67;18.13;;;;;;;1.27;79.01;93973.19;5113369;28;20020;-45
2021/11/18 02:26:59;;;;;;;39.60;20.85;;;;;;;1.24;79.12;93966.72;5113602;28;20604;-44
2021/11/18 02:29:25;;;;;;;30.00;17.33;;;;;;;1.09;79.47;93973.44;5113634;28;20020;-45
2021/11/18 02:31:55;;;;;;;31.70;15.45;;;;;;;0.98;79.46;93982.22;5113635;28;20366;-43
2021/11/18 02:34:27;;;;;;;28.55;13.82;;;;;;;1.03;79.29;93980.78;5113556;28;20420;-45
2021/11/18 02:36:52;;;;;;;56.20;13.77;;;;;;;1.10;79.62;93983.13;5113249;28;20137;-44
2021/11/18 02:39:18;;;;;;;63.42;14.45;;;;;;;1.10;79.85;93975.72;5113101;28;20103;-42
2021/11/18 02:41:44;;;;;;;43.78;13.48;;;;;;;1.20;79.79;93982.50;5112920;28;20030;-43
2021/11/18 02:44:09;;;;;;;73.88;17.50;;;;;;;1.04;80.89;93985.00;5113082;28;20023;-43
2021/11/18 02:46:35;;;;;;;59.75;16.27;;;;;;;1.18;80.21;93990.38;5112920;28;20523;-45
2021/11/18 02:49:01;;;;;;;40.70;14.18;;;;;;;1.24;80.03;93991.22;5113309;28;20015;-44
2021/11/18 02:51:26;;;;;;;58.53;14.60;;;;;;;1.07;80.30;93998.41;5094770;28;20385;-44
2021/11/18 02:53:53;;;;;;;46.80;14.73;;;;;;;0.98;80.84;93995.78;5113084;28;20102;-45
2021/11/18 02:56:19;;;;;;;43.60;12.98;;;;;;;1.01;80.47;93994.88;5113220;28;20042;-43
2021/11/18 02:58:46;;;;;;;41.03;12.80;;;;;;;1.07;79.64;93995.69;5112659;28;20028;-43
2021/11/18 03:01:21;;;;;;;35.83;12.80;;;;;;;1.03;79.07;94005.25;5113084;28;20028;-44
2021/11/18 03:03:48;;;;;;;27.88;12.90;;;;;;;0.95;79.10;94007.63;5113054;28;20547;-46
2021/11/18 03:06:14;;;;;;;45.97;14.45;;;;;;;0.92;79.91;94015.97;5112954;28;20041;-46
2021/11/18 03:08:42;;;;;;;53.88;14.77;;;;;;;0.93;79.99;94010.09;5112771;28;20413;-45
2021/11/18 03:11:08;;;;;;;40.83;12.98;;;;;;;0.94;80.24;94013.53;5094937;28;20051;-45
2021/11/18 03:13:34;;;;;;;64.10;13.93;;;;;;;1.07;79.60;94003.84;5112855;28;20031;-45
2021/11/18 03:16:01;;;;;;;96.25;16.30;;;;;;;0.86;79.92;94013.19;5112811;28;20023;-46
2021/11/18 03:18:27;;;;;;;70.88;14.18;;;;;;;0.94;80.74;94008.09;5112639;28;20019;-46
2021/11/18 03:20:54;;;;;;;48.63;13.23;;;;;;;1.08;80.66;94016.22;5112455;28;20439;-45
2021/11/18 03:23:20;;;;;;;34.40;11.82;;;;;;;1.05;80.96;94013.69;5094088;28;20028;-45
2021/11/18 03:25:48;;;;;;;68.25;12.40;;;;;;;1.05;80.23;93997.38;5112652;28;20027;-46
2021/11/18 03:28:14;;;;;;;33.90;11.68;;;;;;;1.18;79.49;93993.13;5112536;28;20024;-45
2021/11/18 03:30:41;;;;;;;38.15;11.50;;;;;;;1.02;79.28;93966.44;5112450;28;20051;-45
2021/11/18 03:33:12;;;;;;;44.47;20.98;;;;;;;0.99;79.46;93991.88;5112225;28;20046;-48
2021/11/18 03:35:37;;;;;;;36.13;18.73;;;;;;;0.96;80.25;93995.53;5112440;28;20019;-47
2021/11/18 03:38:03;;;;;;;37.83;15.00;;;;;;;0.74;80.91;93987.06;5112316;28;20110;-47
2021/11/18 03:40:29;;;;;;;31.13;16.38;;;;;;;0.73;81.54;93989.03;5111565;28;20053;-46
2021/11/18 03:42:55;;;;;;;47.63;14.02;;;;;;;0.73;80.72;93994.47;5111934;28;20065;-47
2021/11/18 03:45:22;;;;;;;49.25;14.05;;;;;;;0.81;81.06;93994.81;5111760;28;20019;-47
2021/11/18 03:47:48;;;;;;;79.00;22.75;;;;;;;0.85;80.44;93997.31;5094038;28;20020;-48
2021/11/18 03:50:14;;;;;;;86.88;26.15;;;;;;;0.83;80.73;94005.97;5112079;28;20515;-49
2021/11/18 03:52:40;;;;;;;64.13;14.18;;;;;;;0.94;79.88;93999.94;5111858;28;20027;-48
2021/11/18 03:55:08;;;;;;;54.88;15.52;;;;;;;0.94;79.77;93997.97;5111765;28;20413;-47
2021/11/18 03:57:35;;;;;;;57.17;16.17;;;;;;;0.83;80.19;93986.94;5111827;28;20028;-46
2021/11/18 04:00:03;;;;;;;92.93;18.73;;;;;;;0.75;80.54;94002.91;5111837;28;20042;-47
2021/11/18 04:02:29;;;;;;;79.47;15.23;;;;;;;0.88;80.35;93997.16;5111456;28;20040;-45
2021/11/18 04:05:00;;;;;;;75.18;11.82;;;;;;;0.98;80.46;93990.38;5111508;28;20034;-45
2021/11/18 04:07:26;;;;;;;56.03;13.65;;;;;;;0.90;79.91;93997.44;5111762;28;20408;-45
2021/11/18 04:09:51;;;;;;;57.28;11.70;;;;;;;0.91;80.26;93992.75;5111421;28;20023;-46
2021/11/18 04:12:17;;;;;;;40.03;10.73;;;;;;;0.93;80.27;93993.78;5111687;28;20062;-47
2021/11/18 04:14:43;;;;;;;33.83;12.05;;;;;;;0.92;80.24;93992.25;5111484;28;20522;-45
2021/11/18 04:17:09;;;;;;;45.20;11.52;;;;;;;1.00;79.88;93998.03;5111512;28;20478;-45
2021/11/18 04:19:35;;;;;;;40.17;11.75;;;;;;;0.91;80.42;93988.03;5111359;28;20027;-44
2021/11/18 04:22:00;;;;;;;40.25;12.90;;;;;;;0.94;81.33;93997.97;5111201;28;20080;-40
2021/11/18 04:24:29;;;;;;;22.00;10.70;;;;;;;1.08;81.35;93993.72;5111093;28;20032;-40
2021/11/18 04:26:55;;;;;;;68.05;13.93;;;;;;;1.01;81.65;93988.66;5111499;28;20057;-44
2021/11/18 04:29:28;;;;;;;46.22;12.43;;;;;;;1.12;81.23;93988.81;5110992;28;20032;-43
2021/11/18 04:32:15;;;;;;;68.55;16.10;;;;;;;1.15;81.47;93999.50;5111398;28;20055;-45
2021/11/18 04:34:41;;;;;;;40.83;11.32;;;;;;;1.11;81.38;93998.94;5110956;28;20034;-42
2021/11/18 04:37:07;;;;;;;18.85;10.32;;;;;;;1.22;81.16;94003.78;5111037;28;20031;-42
2021/11/18 04:39:33;;;;;;;98.30;12.18;;;;;;;1.33;80.55;94009.38;5111371;28;20482;-42
2021/11/18 04:41:59;;;;;;;24.17;10.85;;;;;;;1.49;79.61;94006.13;5111255;28;20550;-42
2021/11/18 04:44:25;;;;;;;37.28;11.63;;;;;;;1.36;79.31;94003.75;5110452;28;20050;-42
2021/11/18 04:46:51;;;;;;;24.65;13.48;;;;;;;1.09;80.18;94009.56;5110694;28;20087;-43
2021/11/18 04:49:16;;;;;;;38.45;21.05;;;;;;;1.10;79.89;94013.78;5110802;28;20012;-44
2021/11/18 04:51:42;;;;;;;29.65;17.10;;;;;;;0.79;81.11;94013.56;5109323;28;20023;-44
2021/11/18 04:54:08;;;;;;;23.67;14.30;;;;;;;0.92;81.18;94016.72;5109788;28;20026;-43
2021/11/18 04:56:35;;;;;;;24.20;13.68;;;;;;;1.04;80.14;94018.38;5110899;28;20019;-43
2021/11/18 04:59:03;;;;;;;23.17;13.63;;;;;;;1.06;79.89;94024.09;5110845;28;20040;-43
2021/11/18 05:01:28;;;;;;;40.92;22.95;;;;;;;1.06;80.42;94024.09;5110746;28;20023;-42
2021/11/18 05:03:55;;;;;;;44.58;24.95;;;;;;;1.21;80.07;94021.34;5110599;28;20462;-43
2021/11/18 05:06:21;;;;;;;29.70;16.48;;;;;;;1.21;78.83;94007.72;5110886;28;20027;-43
2021/11/18 05:08:46;;;;;;;29.48;16.67;;;;;;;1.35;79.25;94021.28;5110630;28;20020;-45
2021/11/18 05:11:12;;;;;;;20.95;12.23;;;;;;;1.32;78.72;94030.38;5110830;28;20034;-44
2021/11/18 05:13:38;;;;;;;30.10;18.73;;;;;;;1.35;79.63;94029.44;5110679;28;20627;-44
2021/11/18 05:16:06;;;;;;;24.38;15.20;;;;;;;1.38;79.96;94027.75;5110777;28;20055;-43
2021/11/18 05:18:32;;;;;;;30.98;20.25;;;;;;;1.48;78.77;94029.09;5109710;28;20059;-43
2021/11/18 05:20:59;;;;;;;22.02;14.15;;;;;;;1.47;78.97;94025.63;5110307;28;20061;-43
2021/11/18 05:23:25;;;;;;;26.67;17.55;;;;;;;1.70;79.19;94039.50;5110389;28;20556;-46
2021/11/18 05:25:51;;;;;;;17.42;12.70;;;;;;;1.68;78.64;94042.72;5110746;28;20024;-44
2021/11/18 05:28:17;;;;;;;13.25;8.57;;;;;;;1.73;79.13;94035.84;5110393;28;20085;-45
2021/11/18 05:30:43;;;;;;;13.15;9.52;;;;;;;1.69;78.62;94030.56;5110624;28;20019;-44
2021/11/18 05:33:11;;;;;;;15.00;9.02;;;;;;;1.81;78.63;94037.66;5110379;28;20022;-43
2021/11/18 05:35:37;;;;;;;14.75;10.45;;;;;;;1.88;78.12;94044.66;5110580;28;20024;-43
2021/11/18 05:38:04;;;;;;;18.05;10.57;;;;;;;1.89;77.81;94043.44;5101657;28;20038;-44
2021/11/18 05:40:30;;;;;;;16.80;11.43;;;;;;;1.99;77.47;94047.50;5091872;28;20094;-43
2021/11/18 05:42:56;;;;;;;17.35;11.45;;;;;;;1.90;76.53;94042.22;5103486;28;20027;-43
2021/11/18 05:45:25;;;;;;;18.60;12.40;;;;;;;1.88;76.56;94042.69;5108956;28;20042;-45
2021/11/18 05:47:51;;;;;;;;;;;;;;;1.96;77.12;94046.50;5110678;28;20047;-42
2021/11/18 05:50:17;;;;;;;48.53;24.13;;;;;;;1.99;77.21;94042.06;5110411;28;20404;-43
2021/11/18 05:52:43;;;;;;;36.15;23.08;;;;;;;1.93;78.00;94038.53;5105921;28;20020;-46
2021/11/18 05:55:13;;;;;;;39.47;20.50;;;;;;;1.94;78.17;94038.06;5109087;28;20386;-45
2021/11/18 05:57:39;;;;;;;30.58;18.75;;;;;;;1.85;78.90;94040.16;5092003;28;20016;-44
2021/11/18 06:00:07;;;;;;;35.55;23.40;;;;;;;1.97;78.69;94036.34;5089896;28;20032;-44
2021/11/18 06:02:32;;;;;;;36.67;24.23;;;;;;;2.02;78.21;94039.13;5110747;28;20119;-44
2021/11/18 06:04:58;;;;;;;46.53;31.73;;;;;;;2.14;78.06;94040.00;5114280;28;20106;-45
2021/11/18 06:07:23;;;;;;;34.40;22.38;;;;;;;2.05;78.18;94042.88;5114023;28;20032;-45
2021/11/18 06:09:49;;;;;;;43.40;24.67;;;;;;;2.23;78.26;94042.56;5112853;28;20144;-46
2021/11/18 06:12:17;;;;;;;35.63;23.25;;;;;;;2.40;78.86;94048.94;5108916;28;20641;-45
2021/11/18 06:14:42;;;;;;;34.50;23.25;;;;;;;2.52;78.19;94044.31;5111424;28;20034;-43
2021/11/18 06:17:08;;;;;;;50.63;28.60;;;;;;;2.65;76.88;94053.59;5111433;28;20024;-44
2021/11/18 06:19:34;;;;;;;50.33;30.27;;;;;;;2.69;77.01;94053.38;5111555;28;20035;-45
2021/11/18 06:22:00;;;;;;;56.90;28.52;;;;;;;2.56;77.15;94056.50;5111243;28;20737;-45
2021/11/18 06:24:26;;;;;;;42.47;23.35;;;;;;;2.37;76.85;94025.34;5111263;28;20063;-46
2021/11/18 06:26:54;;;;;;;35.35;22.08;;;;;;;2.33;78.49;94060.25;5109703;28;20042;-43
2021/11/18 06:29:20;;;;;;;41.10;23.38;;;;;;;2.43;78.21;94077.94;5105492;28;20032;-42
2021/11/18 06:31:52;;;;;;;30.15;20.65;;;;;;;2.60;77.32;94072.66;5099794;28;20032;-43
2021/11/18 06:34:18;;;;;;;35.40;19.88;;;;;;;2.72;77.66;94083.16;5111787;28;20431;-41
2021/11/18 06:36:44;;;;;;;37.17;20.55;;;;;;;2.77;77.29;94071.53;5111525;28;20043;-42
2021/11/18 06:39:11;;;;;;;26.20;15.98;;;;;;;3.04;76.28;94092.09;5110615;28;20020;-43
2021/11/18 06:41:37;;;;;;;19.88;13.30;;;;;;;3.08;75.71;94074.28;5110791;28;20054;-43
2021/11/18 06:44:03;;;;;;;29.52;17.95;;;;;;;3.42;74.38;94090.88;5110433;28;20023;-43
2021/11/18 06:46:31;;;;;;;25.23;17.02;;;;;;;3.55;74.07;94093.94;5105410;28;20051;-47
2021/11/18 06:48:57;;;;;;;60.50;29.55;;;;;;;3.68;73.72;94092.25;5105379;28;20092;-45
2021/11/18 06:51:24;;;;;;;54.53;26.88;;;;;;;3.65;74.39;94081.59;5110075;28;20051;-45
2021/11/18 06:53:51;;;;;;;26.70;17.48;;;;;;;3.96;73.58;94078.75;5109800;28;20552;-46
2021/11/18 06:56:17;;;;;;;28.00;17.88;;;;;;;4.10;73.25;94088.75;5109832;28;20761;-44
2021/11/18 06:58:43;;;;;;;45.78;22.20;;;;;;;4.30;71.95;94083.09;5109596;28;20085;-44
2021/11/18 07:01:09;;;;;;;43.92;25.63;;;;;;;4.65;71.30;94077.22;5110187;28;20032;-45
2021/11/18 07:03:39;;;;;;;45.97;27.70;;;;;;;4.95;71.08;94085.69;5110134;28;20024;-42
2021/11/18 07:06:09;;;;;;;26.63;16.88;;;;;;;5.49;69.31;94073.22;5110032;28;20024;-41
2021/11/18 07:08:35;;;;;;;21.23;13.98;;;;;;;6.03;67.84;94077.09;5109769;28;20581;-46
2021/11/18 07:11:01;;;;;;;23.55;18.02;;;;;;;6.41;65.61;94074.69;5109379;28;20125;-46
2021/11/18 07:13:28;;;;;;;25.92;16.15;;;;;;;6.26;65.32;94077.00;5108456;28;20027;-46
2021/11/18 07:15:54;;;;;;;39.38;23.75;;;;;;;6.55;65.17;94079.09;5107314;28;20027;-46
2021/11/18 07:18:21;;;;;;;54.28;27.85;;;;;;;6.89;63.09;94083.84;5108149;28;20528;-46
2021/11/18 07:20:48;;;;;;;46.63;27.30;;;;;;;6.80;63.88;94078.69;5108382;28;20032;-47
2021/11/18 07:23:14;;;;;;;59.05;32.30;;;;;;;6.91;63.10;94088.09;5109180;28;20031;-49
2021/11/18 07:25:40;;;;;;;45.65;25.75;;;;;;;7.01;62.89;94092.03;5107595;28;20050;-45
2021/11/18 07:28:06;;;;;;;38.97;22.73;;;;;;;6.88;63.47;94071.41;5110278;28;20480;-48
2021/11/18 07:30:33;;;;;;;36.30;22.02;;;;;;;7.51;62.46;94084.13;5105616;28;20507;-49
2021/11/18 07:32:58;;;;;;;60.88;39.33;;;;;;;7.29;63.43;94081.56;5088872;28;20081;-48
2021/11/18 07:35:25;;;;;;;34.92;23.67;;;;;;;7.17;63.47;94083.66;5094672;28;20035;-51
2021/11/18 07:37:50;;;;;;;35.03;24.88;;;;;;;7.28;63.63;94077.31;5108640;28;20081;-47
2021/11/18 07:40:18;;;;;;;29.27;19.88;;;;;;;7.60;63.09;94079.03;5088379;28;20439;-47
2021/11/18 07:42:45;;;;;;;26.50;17.73;;;;;;;8.00;61.71;94077.38;5091240;28;20085;-49
2021/11/18 07:45:13;;;;;;;25.15;19.13;;;;;;;8.50;60.60;94074.06;5109096;28;20049;-51
2021/11/18 07:47:38;;;;;;;24.63;16.48;;;;;;;8.96;59.97;94072.94;5108853;28;20519;-47
2021/11/18 07:50:06;;;;;;;24.13;16.83;;;;;;;9.47;57.91;94071.59;5109494;28;20067;-51
2021/11/18 07:52:32;;;;;;;18.40;14.00;;;;;;;10.54;55.20;94067.13;5109534;28;20035;-52
2021/11/18 07:54:58;;;;;;;16.05;12.98;;;;;;;10.87;53.17;94075.97;5103980;28;20732;-50
2021/11/18 07:57:23;;;;;;;18.88;13.27;;;;;;;10.74;54.03;94071.22;5108415;28;20084;-49
2021/11/18 07:59:49;;;;;;;17.90;12.70;;;;;;;10.32;55.22;94081.38;5108019;28;20024;-51
2021/11/18 08:02:14;;;;;;;23.40;16.05;;;;;;;9.76;56.36;94076.13;5108502;28;20027;-49
2021/11/18 08:04:40;;;;;;;23.65;17.27;;;;;;;9.46;57.62;94083.91;5107552;28;20084;-53
2021/11/18 08:07:07;;;;;;;23.42;15.68;;;;;;;9.09;58.73;94087.50;5106802;28;20020;-51
2021/11/18 08:09:33;;;;;;;20.63;14.70;;;;;;;9.07;58.35;94089.28;5106470;28;20455;-51
2021/11/18 08:12:00;;;;;;;22.85;15.68;;;;;;;8.72;59.00;94092.28;5105790;28;20036;-49
2021/11/18 08:14:27;;;;;;;25.00;16.10;;;;;;;8.58;60.31;94091.47;5106044;28;20058;-45
2021/11/18 08:16:54;;;;;;;21.00;15.73;;;;;;;8.26;61.60;94101.63;5106768;28;20520;-46
2021/11/18 08:19:19;;;;;;;29.85;18.95;;;;;;;7.95;62.98;94088.44;5107115;28;20035;-53
2021/11/18 08:21:46;;;;;;;32.85;20.00;;;;;;;7.86;63.58;94092.25;5108671;28;20530;-47
2021/11/18 08:24:14;;;;;;;25.92;19.23;;;;;;;7.85;64.11;94093.53;5108364;28;20072;-49
2021/11/18 08:26:39;;;;;;;28.80;17.63;;;;;;;7.61;64.79;94094.28;5106980;28;20034;-46
2021/11/18 08:29:06;;;;;;;28.02;18.45;;;;;;;7.26;65.17;94094.31;5108145;28;20023;-47
2021/11/18 08:31:32;;;;;;;21.52;14.65;;;;;;;6.97;66.84;94092.31;5107997;28;20122;-47
2021/11/18 08:34:00;;;;;;;22.30;15.45;;;;;;;6.96;66.84;94073.59;5108265;28;20106;-47
2021/11/18 08:36:26;;;;;;;24.40;16.53;;;;;;;7.32;67.42;94108.03;5087180;28;20032;-48
2021/11/18 08:38:52;;;;;;;23.42;16.52;;;;;;;7.46;66.30;94093.91;5108024;28;20032;-46
2021/11/18 08:41:20;;;;;;;21.00;14.02;;;;;;;7.42;65.94;94104.44;5108217;28;20039;-47
2021/11/18 08:43:48;;;;;;;28.70;16.97;;;;;;;7.32;66.71;94103.25;5108256;28;20027;-47
2021/11/18 08:46:16;;;;;;;25.80;16.10;;;;;;;7.47;66.94;94103.63;5108262;28;20597;-48
2021/11/18 08:48:43;;;;;;;23.15;16.27;;;;;;;7.62;66.39;94108.75;5107902;28;20023;-51
2021/11/18 08:51:09;;;;;;;22.00;15.02;;;;;;;7.65;65.75;94102.22;5107980;28;20544;-48
2021/11/18 08:53:38;;;;;;;23.85;15.73;;;;;;;7.70;66.60;94104.19;5108578;28;20066;-51
2021/11/18 08:56:04;;;;;;;22.02;14.45;;;;;;;7.40;66.64;94095.97;5109796;28;20020;-48
2021/11/18 08:58:34;;;;;;;22.35;13.77;;;;;;;7.61;67.03;94107.25;5109716;28;20131;-47
2021/11/18 09:01:04;;;;;;;;;;;;;;;7.76;66.48;94109.63;5110543;28;20118;-48
2021/11/18 09:03:33;;;;;;;20.83;12.77;;;;;;;7.85;66.37;94117.53;5109625;28;19907;-48
2021/11/18 09:06:01;;;;;;;17.20;12.65;;;;;;;7.93;65.44;94112.94;5109964;28;20047;-48
2021/11/18 09:08:26;;;;;;;18.63;13.43;;;;;;;7.78;65.01;94113.34;5109663;28;20076;-49
2021/11/18 09:10:52;;;;;;;23.55;14.93;;;;;;;7.89;65.84;94118.75;5109933;28;20412;-48
2021/11/18 09:13:18;;;;;;;22.88;14.60;;;;;;;7.97;64.74;94118.91;5109711;28;20458;-46
2021/11/18 09:15:44;;;;;;;21.45;14.93;;;;;;;8.09;64.94;94114.78;5109784;28;20027;-49
2021/11/18 09:18:10;;;;;;;26.73;15.13;;;;;;;8.21;65.65;94121.63;5108903;28;20057;-48
2021/11/18 09:20:37;;;;;;;23.35;16.05;;;;;;;8.27;64.91;94128.59;5109450;28;20100;-49
2021/11/18 09:23:02;;;;;;;21.10;15.13;;;;;;;7.91;65.31;94120.97;5109756;28;20034;-47
2021/11/18 09:25:35;;;;;;;21.85;14.48;;;;;;;7.75;66.30;94119.88;5109360;28;20031;-46
2021/11/18 09:28:01;;;;;;;23.90;16.90;;;;;;;7.61;67.40;94121.75;5109446;28;20110;-46
2021/11/18 09:30:31;;;;;;;29.30;18.35;;;;;;;7.83;68.37;94120.81;5109469;28;20099;-47
2021/11/18 09:32:58;;;;;;;27.75;17.50;;;;;;;7.99;66.86;94117.13;5109459;28;20032;-46
2021/11/18 09:35:31;;;;;;;32.75;19.75;;;;;;;7.96;66.96;94123.66;5109345;28;20030;-46
2021/11/18 09:37:57;;;;;;;30.13;15.95;;;;;;;7.61;66.93;94088.03;5110348;28;20483;-46
2021/11/18 09:40:27;;;;;;;27.02;17.92;;;;;;;7.80;67.72;94115.56;5113471;28;20534;-47
2021/11/18 09:43:04;;;;;;;37.22;18.55;;;;;;;7.80;67.93;94121.81;5113398;28;20023;-46
2021/11/18 09:45:31;;;;;;;36.72;20.33;;;;;;;7.89;68.62;94112.50;5113407;28;20059;-45
2021/11/18 09:48:33;;;;;;;32.72;20.55;;;;;;;8.03;67.67;94108.59;5111898;28;20515;-46
2021/11/18 09:51:12;;;;;;;36.17;20.42;;;;;;;8.17;67.76;94101.94;5113226;28;20034;-46
2021/11/18 09:54:10;;;;;;;37.42;20.38;;;;;;;8.23;66.29;94106.13;5094961;28;20032;-46
2021/11/18 09:56:40;;;;;;;29.10;19.10;;;;;;;8.24;66.19;94101.38;5112489;28;20042;-49
2021/11/18 09:59:16;;;;;;;26.15;17.13;;;;;;;8.39;65.99;94093.47;5095013;28;20024;-49
2021/11/18 10:02:09;;;;;;;33.60;18.83;;;;;;;8.33;65.60;94101.03;5113037;28;20034;-48
2021/11/18 10:04:41;;;;;;;40.45;23.45;;;;;;;8.44;66.31;94095.41;5113243;28;20110;-52
2021/11/18 10:07:20;;;;;;;40.33;25.38;;;;;;;8.50;65.58;94098.06;5112679;28;20038;-56
2021/11/18 10:10:04;;;;;;;35.67;19.65;;;;;;;8.46;66.22;94089.38;5112907;28;20062;-53
2021/11/18 10:12:50;;;;;;;34.22;21.88;;;;;;;8.55;65.81;94081.50;5094480;28;20488;-51
2021/11/18 10:15:21;;;;;;;32.92;20.00;;;;;;;8.57;65.55;94081.72;5112818;28;20102;-55
2021/11/18 10:18:01;;;;;;;30.25;20.30;;;;;;;8.46;65.61;94079.13;5112600;28;20032;-51
2021/11/18 10:20:46;;;;;;;43.13;23.52;;;;;;;8.47;65.44;94075.09;5112751;28;20081;-49
2021/11/18 10:23:17;;;;;;;33.08;22.67;;;;;;;8.35;65.82;94074.50;5112657;28;20088;-54
2021/11/18 10:25:52;;;;;;;31.38;20.70;;;;;;;8.45;65.89;94088.63;5105104;28;20505;-48
2021/11/18 10:28:21;;;;;;;36.35;20.88;;;;;;;8.48;65.46;94081.34;5092383;28;20047;-50
2021/11/18 10:31:08;;;;;;;30.65;20.70;;;;;;;8.49;64.28;94086.31;5092179;28;20043;-50
2021/11/18 10:33:50;;;;;;;29.35;19.73;;;;;;;8.13;64.65;94082.97;5111566;28;20043;-47
2021/11/18 10:36:33;;;;;;;32.40;20.73;;;;;;;8.03;65.87;94084.59;5112668;28;20049;-49
2021/11/18 10:39:20;;;;;;;34.58;20.85;;;;;;;7.52;66.24;94075.38;5112265;28;20106;-48
2021/11/18 10:42:01;;;;;;;31.55;21.48;;;;;;;7.64;66.20;94082.22;5107900;28;20031;-47
2021/11/18 10:44:27;;;;;;;38.03;20.17;;;;;;;7.61;66.37;94077.78;5111212;28;20016;-52
2021/11/18 10:47:27;;;;;;;35.13;22.63;;;;;;;7.65;66.44;94082.97;5109655;28;20475;-51
2021/11/18 10:50:26;;;;;;;33.55;21.50;;;;;;;7.48;66.76;94083.16;5105788;28;20532;-53
2021/11/18 10:53:08;;;;;;;;;;;;;;;7.33;67.57;94079.28;5110586;28;20057;-50
2021/11/18 10:55:37;;;;;;;40.00;23.70;;;;;;;7.41;68.24;94080.97;5110974;28;19973;-50
2021/11/18 10:58:14;;;;;;;38.08;22.27;;;;;;;7.60;68.18;94072.81;5110721;28;20088;-50
2021/11/18 11:00:52;;;;;;;39.42;21.70;;;;;;;7.64;68.11;94065.75;5106205;28;20424;-50
2021/11/18 11:03:33;;;;;;;50.75;30.85;;;;;;;7.76;67.83;94066.38;5095323;28;20036;-49
2021/11/18 11:06:15;;;;;;;50.03;28.92;;;;;;;7.98;67.29;94063.41;5101587;28;20036;-51
2021/11/18 11:08:52;;;;;;;38.10;24.42;;;;;;;8.09;66.47;94057.03;5089655;28;20024;-52
2021/11/18 11:11:42;;;;;;;39.08;24.25;;;;;;;8.39;66.41;94065.94;5089365;28;20028;-51
2021/11/18 11:14:20;;;;;;;31.73;21.58;;;;;;;8.38;65.51;94061.72;5089629;28;20027;-51
2021/11/18 11:17:10;;;;;;;29.98;20.08;;;;;;;8.61;64.09;94060.16;5089521;28;20028;-52
2021/11/18 11:19:54;;;;;;;33.95;20.85;;;;;;;8.87;63.55;94062.28;5090534;28;20479;-52
2021/11/18 11:23:05;;;;;;;35.97;21.42;;;;;;;9.32;62.79;94057.59;5091065;28;20028;-51
2021/11/18 11:25:39;;;;;;;32.22;21.08;;;;;;;9.62;61.53;94052.56;5073304;28;20113;-54
2021/11/18 11:28:36;;;;;;;35.35;19.77;;;;;;;9.80;60.99;94042.72;5096069;28;20087;-58
2021/11/18 11:31:40;;;;;;;28.25;19.42;;;;;;;10.05;60.60;94040.50;5111691;28;20047;-52
2021/11/18 11:34:41;;;;;;;26.27;18.42;;;;;;;10.14;59.12;94040.84;5109608;28;20034;-49
2021/11/18 11:37:15;;;;;;;36.50;20.38;;;;;;;10.39;58.93;94039.34;5110810;28;20036;-51